createdAt,value
2022-11-05T00:02:23.508Z,99746.66
2022-11-05T00:05:08.217Z,99750.78
2022-11-05T00:07:55.115Z,99751.59
2022-11-05T00:10:25.329Z,99751.88
2022-11-05T00:13:10.823Z,99753.00
2022-11-05T00:15:55.899Z,99755.00
2022-11-05T00:18:24.532Z,99758.31
2022-11-05T00:20:52.111Z,99764.41
2022-11-05T00:23:37.077Z,99762.84
2022-11-05T00:26:06.691Z,99759.97
2022-11-05T00:28:34.852Z,99754.66
2022-11-05T00:31:03.298Z,99757.72
2022-11-05T00:33:32.470Z,99771.81
2022-11-05T00:35:59.791Z,99766.41
2022-11-05T00:38:27.123Z,99761.00
2022-11-05T00:40:54.448Z,99764.22
2022-11-05T00:43:39.123Z,99766.63
2022-11-05T00:46:06.666Z,99777.50
2022-11-05T00:48:53.183Z,99778.31
2022-11-05T00:51:20.608Z,99776.53
2022-11-05T00:53:48.024Z,99776.63
2022-11-05T00:56:15.383Z,99776.75
2022-11-05T00:58:42.775Z,99782.00
2022-11-05T01:01:11.246Z,99786.66
2022-11-05T01:03:40.850Z,99785.16
2022-11-05T01:06:10.274Z,99786.09
2022-11-05T01:08:38.055Z,99780.53
2022-11-05T01:11:09.916Z,99791.34
2022-11-05T01:13:38.969Z,99794.63
2022-11-05T01:16:08.126Z,99785.09
2022-11-05T01:18:37.835Z,99789.28
2022-11-05T01:21:13.062Z,99798.19
2022-11-05T01:23:40.450Z,99797.72
2022-11-05T01:26:07.780Z,99801.50
2022-11-05T01:28:35.283Z,99802.81
2022-11-05T01:31:02.669Z,99805.75
2022-11-05T01:33:29.983Z,99813.34
2022-11-05T01:35:57.363Z,99807.97
2022-11-05T01:38:27.040Z,99811.16
2022-11-05T01:40:54.380Z,99810.19
2022-11-05T01:43:22.982Z,99823.00
2022-11-05T01:45:51.328Z,99819.41
2022-11-05T01:48:22.422Z,99818.78
2022-11-05T01:50:52.521Z,99819.38
2022-11-05T01:53:24.163Z,99819.06
2022-11-05T01:55:56.991Z,99824.53
2022-11-05T01:58:28.596Z,99817.88
2022-11-05T02:00:56.432Z,99823.31
2022-11-05T02:03:24.155Z,99819.22
2022-11-05T02:05:52.173Z,99822.72
2022-11-05T02:08:35.213Z,99821.63
2022-11-05T02:11:03.943Z,99820.38
2022-11-05T02:13:31.398Z,99818.72
2022-11-05T02:16:04.334Z,99815.25
2022-11-05T02:18:42.175Z,99820.13
2022-11-05T02:21:32.601Z,99811.94
2022-11-05T02:24:25.967Z,99820.06
2022-11-05T02:27:08.903Z,99823.97
2022-11-05T02:30:01.489Z,99824.31
2022-11-05T02:32:36.739Z,99828.78
2022-11-05T02:35:10.348Z,99830.31
2022-11-05T02:37:40.771Z,99827.28
2022-11-05T02:40:14.088Z,99829.00
2022-11-05T02:42:45.631Z,99830.34
2022-11-05T02:45:23.603Z,99833.34
2022-11-05T02:47:59.885Z,99844.13
2022-11-05T02:50:31.951Z,99837.09
2022-11-05T02:53:02.827Z,99838.50
2022-11-05T02:55:34.533Z,99843.06
2022-11-05T02:58:03.448Z,99848.53
2022-11-05T03:00:40.845Z,99842.16
2022-11-05T03:03:17.090Z,99846.88
2022-11-05T03:05:50.670Z,99845.66
2022-11-05T03:08:24.063Z,99852.94
2022-11-05T03:10:52.843Z,99849.78
2022-11-05T03:13:23.823Z,99855.38
2022-11-05T03:15:57.215Z,99852.84
2022-11-05T03:18:31.480Z,99857.78
2022-11-05T03:21:02.103Z,99856.16
2022-11-05T03:23:34.116Z,99861.47
2022-11-05T03:26:06.831Z,99860.16
2022-11-05T03:28:40.693Z,99864.31
2022-11-05T03:31:08.884Z,99868.84
2022-11-05T03:33:39.527Z,99868.22
2022-11-05T03:36:13.816Z,99878.63
2022-11-05T03:38:43.421Z,99876.50
2022-11-05T03:41:12.751Z,99875.31
2022-11-05T03:43:42.883Z,99883.44
2022-11-05T03:46:13.150Z,99882.63
2022-11-05T03:48:45.453Z,99879.13
2022-11-05T03:51:18.848Z,99885.22
2022-11-05T03:53:49.215Z,99886.75
2022-11-05T03:56:20.267Z,99899.41
2022-11-05T03:58:48.372Z,99890.69
2022-11-05T04:01:16.066Z,99890.97
2022-11-05T04:03:44.726Z,99894.41
2022-11-05T04:06:29.419Z,99895.91
2022-11-05T04:09:14.492Z,99894.00
2022-11-05T04:11:59.763Z,99897.94
2022-11-05T04:14:27.183Z,99909.13
2022-11-05T04:17:09.931Z,99910.47
2022-11-05T04:19:57.290Z,99908.81
2022-11-05T04:22:43.735Z,99910.53
2022-11-05T04:25:11.211Z,99911.50
2022-11-05T04:27:38.559Z,99906.41
2022-11-05T04:30:18.599Z,99912.22
2022-11-05T04:32:59.669Z,99911.44
2022-11-05T04:35:29.420Z,99913.94
2022-11-05T04:37:56.858Z,99910.47
2022-11-05T04:40:24.500Z,99921.25
2022-11-05T04:42:51.932Z,99918.34
2022-11-05T04:45:19.260Z,99924.53
2022-11-05T04:47:46.559Z,99919.06
2022-11-05T04:50:13.880Z,99924.78
2022-11-05T04:52:42.821Z,99925.19
2022-11-05T04:55:10.224Z,99928.16
2022-11-05T04:57:37.606Z,99927.41
2022-11-05T05:00:06.173Z,99924.84
2022-11-05T05:02:33.629Z,99922.97
2022-11-05T05:05:00.947Z,99923.88
2022-11-05T05:07:28.407Z,99924.97
2022-11-05T05:09:57.069Z,99934.34
2022-11-05T05:12:24.494Z,99935.16
2022-11-05T05:14:51.847Z,99942.69
2022-11-05T05:17:19.236Z,99942.09
2022-11-05T05:20:04.228Z,99945.41
2022-11-05T05:22:31.591Z,99948.94
2022-11-05T05:25:00.691Z,99948.50
2022-11-05T05:27:30.086Z,99946.03
2022-11-05T05:29:57.586Z,99945.03
2022-11-05T05:32:25.663Z,99946.53
2022-11-05T05:34:53.426Z,99944.72
2022-11-05T05:37:21.011Z,99943.66
2022-11-05T05:39:48.663Z,99948.63
2022-11-05T05:42:17.380Z,99942.63
2022-11-05T05:44:44.803Z,99945.56
2022-11-05T05:47:12.148Z,99943.16
2022-11-05T05:49:39.483Z,99948.25
2022-11-05T05:52:06.824Z,99955.22
2022-11-05T05:54:38.293Z,99954.47
2022-11-05T05:57:08.736Z,99963.78
2022-11-05T05:59:37.415Z,99962.34
2022-11-05T06:02:04.903Z,99965.44
2022-11-05T06:04:32.313Z,99970.34
2022-11-05T06:06:59.719Z,99969.94
2022-11-05T06:09:27.055Z,99980.22
2022-11-05T06:11:54.391Z,99977.81
2022-11-05T06:14:22.028Z,99983.63
2022-11-05T06:16:50.723Z,99980.31
2022-11-05T06:19:18.248Z,99988.47
2022-11-05T06:21:45.598Z,99990.94
2022-11-05T06:24:12.919Z,99983.84
2022-11-05T06:26:43.090Z,99985.28
2022-11-05T06:29:10.902Z,99991.25
2022-11-05T06:31:38.326Z,100002.81
2022-11-05T06:34:06.965Z,99994.13
2022-11-05T06:36:34.440Z,100005.91
2022-11-05T06:39:01.848Z,100003.06
2022-11-05T06:41:29.183Z,99998.69
2022-11-05T06:43:56.557Z,100002.88
2022-11-05T06:46:23.936Z,100001.53
2022-11-05T06:48:51.795Z,100000.91
2022-11-05T06:51:20.468Z,100013.78
2022-11-05T06:53:47.831Z,100019.59
2022-11-05T06:56:15.180Z,100026.16
2022-11-05T06:58:42.500Z,100033.19
2022-11-05T07:01:11.045Z,100033.13
2022-11-05T07:03:39.176Z,100048.50
2022-11-05T07:06:07.502Z,100049.81
2022-11-05T07:08:37.544Z,100057.28
2022-11-05T07:11:05.231Z,100057.75
2022-11-05T07:13:32.732Z,100065.59
2022-11-05T07:16:00.127Z,100067.72
2022-11-05T07:18:27.516Z,100080.94
2022-11-05T07:20:54.876Z,100072.41
2022-11-05T07:23:22.242Z,100072.72
2022-11-05T07:25:50.927Z,100076.41
2022-11-05T07:28:18.351Z,100071.47
2022-11-05T07:30:45.668Z,100083.28
2022-11-05T07:33:13.401Z,100078.75
2022-11-05T07:35:41.139Z,100078.69
2022-11-05T07:38:09.263Z,100085.25
2022-11-05T07:40:36.630Z,100093.53
2022-11-05T07:43:05.304Z,100082.28
2022-11-05T07:45:32.967Z,100090.34
2022-11-05T07:48:01.654Z,100088.00
2022-11-05T07:50:30.505Z,100090.53
2022-11-05T07:53:00.923Z,100096.84
2022-11-05T07:55:28.275Z,100099.94
2022-11-05T07:57:55.610Z,100105.56
2022-11-05T08:00:25.581Z,100110.44
2022-11-05T08:03:06.781Z,100103.25
2022-11-05T08:05:37.637Z,100102.00
2022-11-05T08:08:05.895Z,100102.19
2022-11-05T08:10:33.919Z,100096.09
2022-11-05T08:13:01.489Z,100098.69
2022-11-05T08:15:30.200Z,100099.81
2022-11-05T08:18:00.629Z,100096.03
2022-11-05T08:20:28.042Z,100092.63
2022-11-05T08:22:55.524Z,100092.78
2022-11-05T08:25:22.875Z,100095.84
2022-11-05T08:27:56.192Z,100089.28
2022-11-05T08:30:23.626Z,100092.94
2022-11-05T08:32:52.651Z,100095.91
2022-11-05T08:35:20.262Z,100094.69
2022-11-05T08:37:47.719Z,100091.91
2022-11-05T08:40:15.400Z,100096.84
2022-11-05T08:42:42.774Z,100096.13
2022-11-05T08:45:10.806Z,100100.84
2022-11-05T08:47:38.159Z,100105.81
2022-11-05T08:50:07.844Z,100105.75
2022-11-05T08:52:35.173Z,100105.00
2022-11-05T08:55:02.494Z,100102.31
2022-11-05T08:57:29.819Z,100110.94
2022-11-05T08:59:57.175Z,100098.47
2022-11-05T09:02:24.675Z,100103.38
2022-11-05T09:04:52.099Z,100101.72
2022-11-05T09:07:22.748Z,100105.28
2022-11-05T09:09:50.104Z,100107.22
2022-11-05T09:12:17.789Z,100112.47
2022-11-05T09:14:45.120Z,100103.53
2022-11-05T09:17:18.127Z,100119.09
2022-11-05T09:19:45.463Z,100111.22
2022-11-05T09:22:13.255Z,100109.63
2022-11-05T09:24:42.909Z,100101.16
2022-11-05T09:27:11.782Z,100111.91
2022-11-05T09:29:39.144Z,100110.97
2022-11-05T09:32:06.837Z,100113.88
2022-11-05T09:34:34.436Z,100124.88
2022-11-05T09:37:01.905Z,100117.34
2022-11-05T09:39:29.323Z,100121.19
2022-11-05T09:42:02.946Z,100129.88
2022-11-05T09:44:37.003Z,100126.63
2022-11-05T09:47:08.007Z,100134.56
2022-11-05T09:49:39.854Z,100146.94
2022-11-05T09:52:11.331Z,100148.09
2022-11-05T09:54:38.854Z,100144.28
2022-11-05T09:57:12.305Z,100147.63
2022-11-05T09:59:43.502Z,100144.31
2022-11-05T10:02:16.738Z,100154.59
2022-11-05T10:04:46.047Z,100151.94
2022-11-05T10:07:16.214Z,100159.25
2022-11-05T10:09:47.691Z,100158.59
2022-11-05T10:12:19.728Z,100160.91
2022-11-05T10:14:50.943Z,100155.78
2022-11-05T10:17:24.088Z,100160.25
2022-11-05T10:19:54.126Z,100161.91
2022-11-05T10:22:21.524Z,100175.22
2022-11-05T10:24:50.206Z,100172.91
2022-11-05T10:27:20.992Z,100175.19
2022-11-05T10:29:49.130Z,100179.09
2022-11-05T10:32:23.811Z,100170.00
2022-11-05T10:34:51.370Z,100175.94
2022-11-05T10:37:19.300Z,100182.09
2022-11-05T10:39:46.720Z,100177.84
2022-11-05T10:42:31.219Z,100177.28
2022-11-05T10:45:02.940Z,100179.94
2022-11-05T10:47:39.239Z,100177.94
2022-11-05T10:50:11.807Z,100175.03
2022-11-05T10:52:41.040Z,100176.94
2022-11-05T10:55:16.570Z,100170.84
2022-11-05T10:57:45.293Z,100169.44
2022-11-05T11:00:28.179Z,100170.34
2022-11-05T11:02:57.969Z,100160.66
2022-11-05T11:05:28.729Z,100171.59
2022-11-05T11:08:22.685Z,100164.34
2022-11-05T11:10:52.344Z,100162.16
2022-11-05T11:13:24.259Z,100159.63
2022-11-05T11:15:52.079Z,100159.88
2022-11-05T11:18:30.898Z,100165.44
2022-11-05T11:21:07.617Z,100160.59
2022-11-05T11:23:38.800Z,100169.41
2022-11-05T11:26:06.742Z,100170.91
2022-11-05T11:28:37.136Z,100164.75
2022-11-05T11:31:06.959Z,100175.03
2022-11-05T11:33:35.020Z,100171.38
2022-11-05T11:36:02.395Z,100176.22
2022-11-05T11:38:30.864Z,100174.53
2022-11-05T11:41:19.811Z,100165.06
2022-11-05T11:43:48.519Z,100166.88
2022-11-05T11:46:17.823Z,100169.06
2022-11-05T11:48:47.380Z,100165.91
2022-11-05T11:51:20.570Z,100171.38
2022-11-05T11:53:49.358Z,100162.25
2022-11-05T11:56:18.895Z,100166.75
2022-11-05T11:58:49.291Z,100166.06
2022-11-05T12:01:47.467Z,100165.38
2022-11-05T12:04:22.891Z,100173.19
2022-11-05T12:06:56.558Z,100170.88
2022-11-05T12:09:29.664Z,100166.22
2022-11-05T12:12:01.475Z,100164.88
2022-11-05T12:14:34.318Z,100166.00
2022-11-05T12:17:19.553Z,100150.81
2022-11-05T12:20:00.287Z,100159.50
2022-11-05T12:22:34.466Z,100164.72
2022-11-05T12:25:18.563Z,100153.72
2022-11-05T12:28:04.441Z,100159.41
2022-11-05T12:30:38.251Z,100157.63
2022-11-05T12:33:17.648Z,100158.09
2022-11-05T12:36:03.359Z,100152.59
2022-11-05T12:38:45.400Z,100152.31
2022-11-05T12:41:16.945Z,100152.31
2022-11-05T12:43:54.059Z,100154.91
2022-11-05T12:46:27.615Z,100154.38
2022-11-05T12:49:09.534Z,100150.03
2022-11-05T12:51:49.123Z,100152.19
2022-11-05T12:54:24.236Z,100145.47
2022-11-05T12:56:54.398Z,100143.00
2022-11-05T12:59:26.318Z,100153.72
2022-11-05T13:02:01.559Z,100141.53
2022-11-05T13:04:34.743Z,100145.19
2022-11-05T13:07:04.783Z,100146.81
2022-11-05T13:09:36.378Z,100143.63
2022-11-05T13:12:06.121Z,100149.56
2022-11-05T13:14:37.063Z,100149.22
2022-11-05T13:17:09.945Z,100141.22
2022-11-05T13:19:40.597Z,100132.47
2022-11-05T13:22:14.302Z,100140.53
2022-11-05T13:24:48.238Z,100132.19
2022-11-05T13:27:40.213Z,100135.50
2022-11-05T13:30:10.451Z,100140.66
2022-11-05T13:32:41.975Z,100133.06
2022-11-05T13:35:17.280Z,100133.44
2022-11-05T13:38:03.851Z,100128.88
2022-11-05T13:40:40.483Z,100129.31
2022-11-05T13:43:30.800Z,100119.09
2022-11-05T13:46:41.684Z,100118.97
2022-11-05T13:49:22.087Z,100113.06
2022-11-05T13:51:53.021Z,100118.91
2022-11-05T13:54:37.632Z,100120.69
2022-11-05T13:57:16.559Z,100122.34
2022-11-05T13:59:52.243Z,100124.06
2022-11-05T14:02:22.497Z,100119.66
2022-11-05T14:04:58.012Z,100122.13
2022-11-05T14:07:30.171Z,100132.78
2022-11-05T14:09:59.774Z,100125.66
2022-11-05T14:12:30.849Z,100126.84
2022-11-05T14:15:02.758Z,100131.41
2022-11-05T14:17:34.657Z,100133.47
2022-11-05T14:20:25.927Z,100129.63
2022-11-05T14:22:53.785Z,100129.22
2022-11-05T14:25:54.840Z,100131.44
2022-11-05T14:28:31.052Z,100132.75
2022-11-05T14:30:58.379Z,100139.28
2022-11-05T14:33:33.664Z,100124.34
2022-11-05T14:36:31.432Z,100126.47
2022-11-05T14:39:04.630Z,100118.59
2022-11-05T14:41:32.064Z,100133.94
2022-11-05T14:44:01.098Z,100135.06
2022-11-05T14:46:41.039Z,100130.38
2022-11-05T14:49:17.191Z,100129.78
2022-11-05T14:51:48.191Z,100129.88
2022-11-05T14:54:20.876Z,100127.91
2022-11-05T14:56:55.859Z,100128.66
2022-11-05T14:59:35.990Z,100143.63
2022-11-05T15:02:04.537Z,100141.16
2022-11-05T15:04:33.159Z,100140.59
2022-11-05T15:07:35.284Z,100136.69
2022-11-05T15:10:10.632Z,100137.84
2022-11-05T15:12:42.451Z,100134.81
2022-11-05T15:15:22.451Z,100132.59
2022-11-05T15:18:00.497Z,100140.47
2022-11-05T15:20:37.294Z,100134.78
2022-11-05T15:23:13.732Z,100137.59
2022-11-05T15:25:51.871Z,100139.25
2022-11-05T15:28:26.581Z,100123.53
2022-11-05T15:30:59.271Z,100123.50
2022-11-05T15:33:27.258Z,100112.06
2022-11-05T15:35:54.901Z,100112.41
2022-11-05T15:38:31.683Z,100108.06
2022-11-05T15:41:01.162Z,100115.53
2022-11-05T15:43:28.790Z,100101.47
2022-11-05T15:46:07.979Z,100101.63
2022-11-05T15:48:35.687Z,100093.50
2022-11-05T15:51:03.228Z,100097.00
2022-11-05T15:53:56.074Z,100092.84
2022-11-05T15:56:25.552Z,100100.97
2022-11-05T15:58:55.253Z,100106.97
2022-11-05T16:01:24.775Z,100108.28
2022-11-05T16:03:52.889Z,100109.97
2022-11-05T16:06:20.268Z,100118.06
2022-11-05T16:08:50.323Z,100120.44
2022-11-05T16:11:25.165Z,100119.41
2022-11-05T16:13:53.237Z,100116.44
2022-11-05T16:16:31.291Z,100114.28
2022-11-05T16:18:58.657Z,100119.25
2022-11-05T16:21:26.071Z,100116.09
2022-11-05T16:23:57.120Z,100116.28
2022-11-05T16:26:55.961Z,100122.22
2022-11-05T16:29:19.411Z,100126.88
2022-11-05T16:31:49.982Z,100125.69
2022-11-05T16:34:26.580Z,100132.84
2022-11-05T16:36:55.669Z,100124.06
2022-11-05T16:39:24.443Z,100138.31
2022-11-05T16:41:52.044Z,100129.84
2022-11-05T16:44:19.442Z,100136.13
2022-11-05T16:46:49.019Z,100126.72
2022-11-05T16:49:16.639Z,100129.66
2022-11-05T16:51:44.593Z,100134.03
2022-11-05T16:54:11.924Z,100140.81
2022-11-05T16:56:42.188Z,100140.28
2022-11-05T16:59:12.542Z,100141.13
2022-11-05T17:01:41.075Z,100145.28
2022-11-05T17:04:09.569Z,100134.84
2022-11-05T17:06:36.930Z,100145.59
2022-11-05T17:09:04.483Z,100147.84
2022-11-05T17:11:31.878Z,100145.41
2022-11-05T17:14:00.566Z,100143.34
2022-11-05T17:16:28.048Z,100140.78
2022-11-05T17:18:55.368Z,100145.16
2022-11-05T17:21:22.687Z,100144.06
2022-11-05T17:23:50.087Z,100150.03
2022-11-05T17:26:17.447Z,100144.59
2022-11-05T17:28:44.804Z,100144.28
2022-11-05T17:31:14.223Z,100143.59
2022-11-05T17:33:41.711Z,100148.66
2022-11-05T17:36:10.983Z,100151.84
2022-11-05T17:38:38.611Z,100147.00
2022-11-05T17:41:11.748Z,100147.41
2022-11-05T17:43:39.200Z,100154.72
2022-11-05T17:46:08.103Z,100147.25
2022-11-05T17:48:36.959Z,100156.06
2022-11-05T17:51:04.833Z,100156.06
2022-11-05T17:53:32.195Z,100155.41
2022-11-05T17:55:59.558Z,100153.72
2022-11-05T17:58:26.908Z,100155.03
2022-11-05T18:00:54.255Z,100149.72
2022-11-05T18:03:21.582Z,100146.56
2022-11-05T18:05:50.220Z,100152.81
2022-11-05T18:08:17.631Z,100148.91
2022-11-05T18:10:45.032Z,100147.59
2022-11-05T18:13:12.946Z,100143.44
2022-11-05T18:15:40.993Z,100133.59
2022-11-05T18:18:09.040Z,100137.81
2022-11-05T18:20:36.581Z,100130.69
2022-11-05T18:23:05.591Z,100132.44
2022-11-05T18:25:33.070Z,100128.69
2022-11-05T18:28:01.627Z,100126.16
2022-11-05T18:30:29.021Z,100129.59
2022-11-05T18:32:56.379Z,100129.47
2022-11-05T18:35:23.683Z,100126.16
2022-11-05T18:37:51.056Z,100129.78
2022-11-05T18:40:19.781Z,100132.94
2022-11-05T18:42:47.129Z,100130.94
2022-11-05T18:45:14.495Z,100131.47
2022-11-05T18:47:41.861Z,100132.75
2022-11-05T18:50:10.316Z,100137.09
2022-11-05T18:52:37.842Z,100134.09
2022-11-05T18:55:06.033Z,100136.56
2022-11-05T18:57:35.226Z,100143.91
2022-11-05T19:00:02.573Z,100143.50
2022-11-05T19:02:30.062Z,100137.19
2022-11-05T19:07:44.851Z,100139.56
2022-11-05T19:10:12.204Z,100139.75
2022-11-05T19:12:40.949Z,100129.38
2022-11-05T19:15:09.491Z,100127.44
2022-11-05T19:17:37.059Z,100126.16
2022-11-05T19:20:06.066Z,100129.97
2022-11-05T19:22:33.713Z,100126.47
2022-11-05T19:25:01.278Z,100125.63
2022-11-05T19:27:28.645Z,100127.97
2022-11-05T19:29:57.395Z,100129.91
2022-11-05T19:32:24.742Z,100134.53
2022-11-05T19:34:52.098Z,100140.19
2022-11-05T19:37:19.863Z,100139.53
2022-11-05T19:39:47.207Z,100135.38
2022-11-05T19:42:14.598Z,100132.56
2022-11-05T19:44:43.040Z,100131.91
2022-11-05T19:47:11.791Z,100133.09
2022-11-05T19:49:39.129Z,100136.59
2022-11-05T19:52:07.065Z,100125.44
2022-11-05T19:54:36.055Z,100121.06
2022-11-05T19:57:03.399Z,100116.97
2022-11-05T19:59:30.812Z,100124.72
2022-11-05T20:01:58.547Z,100122.59
2022-11-05T20:04:27.323Z,100131.66
2022-11-05T20:06:54.644Z,100129.88
2022-11-05T20:09:23.083Z,100135.06
2022-11-05T20:11:53.083Z,100132.22
2022-11-05T20:14:20.923Z,100130.34
2022-11-05T20:16:48.288Z,100132.00
2022-11-05T20:19:17.320Z,100122.88
2022-11-05T20:21:46.093Z,100123.38
2022-11-05T20:24:18.838Z,100123.38
2022-11-05T20:26:50.969Z,100122.03
2022-11-05T20:29:18.361Z,100126.91
2022-11-05T20:31:45.845Z,100118.41
2022-11-05T20:34:13.270Z,100123.41
2022-11-05T20:36:41.215Z,100127.34
2022-11-05T20:39:11.824Z,100125.50
2022-11-05T20:41:39.220Z,100122.56
2022-11-05T20:44:06.684Z,100122.88
2022-11-05T20:46:34.855Z,100114.09
2022-11-05T20:49:02.191Z,100115.97
2022-11-05T20:51:29.714Z,100117.28
2022-11-05T20:53:57.893Z,100131.31
2022-11-05T20:56:28.023Z,100126.81
2022-11-05T20:58:57.752Z,100134.63
2022-11-05T21:01:25.458Z,100126.66
2022-11-05T21:03:52.947Z,100126.16
2022-11-05T21:06:20.347Z,100134.91
2022-11-05T21:08:48.268Z,100138.38
2022-11-05T21:11:15.668Z,100140.56
2022-11-05T21:13:44.350Z,100141.09
2022-11-05T21:16:17.689Z,100139.28
2022-11-05T21:18:45.519Z,100143.91
2022-11-05T21:21:15.821Z,100146.13
2022-11-05T21:23:43.248Z,100144.69
2022-11-05T21:26:12.874Z,100149.06
2022-11-05T21:28:41.052Z,100139.09
2022-11-05T21:31:10.146Z,100135.63
2022-11-05T21:33:37.697Z,100144.63
2022-11-05T21:36:09.374Z,100138.34
2022-11-05T21:38:36.715Z,100134.03
2022-11-05T21:41:04.678Z,100137.66
2022-11-05T21:43:32.202Z,100137.50
2022-11-05T21:46:01.610Z,100137.00
2022-11-05T21:48:30.657Z,100136.00
2022-11-05T21:51:15.602Z,100126.81
2022-11-05T21:54:00.483Z,100130.16
2022-11-05T21:56:45.816Z,100121.72
2022-11-05T21:59:32.806Z,100124.41
2022-11-05T22:02:02.386Z,100137.59
2022-11-05T22:04:32.603Z,100130.97
2022-11-05T22:07:00.331Z,100127.84
2022-11-05T22:09:28.460Z,100123.56
2022-11-05T22:11:56.460Z,100117.78
2022-11-05T22:14:24.280Z,100106.16
2022-11-05T22:16:51.701Z,100109.84
2022-11-05T22:19:19.154Z,100099.34
2022-11-05T22:21:48.335Z,100097.19
2022-11-05T22:24:15.908Z,100093.16
2022-11-05T22:26:43.987Z,100086.91
2022-11-05T22:29:12.139Z,100068.97
2022-11-05T22:31:39.491Z,100081.44
2022-11-05T22:34:07.247Z,100085.94
2022-11-05T22:36:35.332Z,100078.63
2022-11-05T22:39:05.004Z,100083.75
2022-11-05T22:41:32.464Z,100084.75
2022-11-05T22:43:59.822Z,100091.06
2022-11-05T22:46:27.961Z,100090.59
2022-11-05T22:48:56.085Z,100088.41
2022-11-05T22:51:24.802Z,100089.91
2022-11-05T22:53:52.165Z,100087.25
2022-11-05T22:56:22.276Z,100084.88
2022-11-05T22:58:50.151Z,100094.38
2022-11-05T23:01:18.751Z,100089.06
2022-11-05T23:03:47.368Z,100090.53
2022-11-05T23:06:30.475Z,100091.38
2022-11-05T23:09:16.099Z,100081.50
2022-11-05T23:11:47.222Z,100086.38
2022-11-05T23:14:15.092Z,100089.06
2022-11-05T23:17:00.789Z,100084.94
2022-11-05T23:19:46.559Z,100080.13
2022-11-05T23:22:32.815Z,100067.53
2022-11-05T23:25:00.594Z,100068.03
2022-11-05T23:27:31.306Z,100062.69
2022-11-05T23:29:59.736Z,100050.94
2022-11-05T23:32:28.005Z,100049.13
2022-11-05T23:34:57.286Z,100048.13
2022-11-05T23:37:43.790Z,100041.00
2022-11-05T23:40:14.733Z,100037.94
2022-11-05T23:43:09.692Z,100040.25
2022-11-05T23:45:56.358Z,100031.53
2022-11-05T23:48:27.895Z,100046.75
2022-11-05T23:50:59.575Z,100030.38
2022-11-05T23:53:27.471Z,100037.63
2022-11-05T23:55:59.705Z,100032.19
2022-11-05T23:58:28.523Z,100036.53
